createdAt,value
2018-06-30T00:02:05.539Z,65.83
2018-06-30T00:04:32.865Z,66.07
2018-06-30T00:07:00.130Z,66.33
2018-06-30T00:09:28.051Z,66.45
2018-06-30T00:11:55.281Z,65.99
2018-06-30T00:14:22.560Z,65.78
2018-06-30T00:19:39.926Z,66.41
2018-06-30T00:22:07.418Z,66.03
2018-06-30T00:24:34.697Z,66.75
2018-06-30T00:27:08.005Z,66.87
2018-06-30T00:29:35.296Z,66.75
2018-06-30T00:32:02.554Z,66.55
2018-06-30T00:34:29.834Z,66.97
2018-06-30T00:36:57.103Z,67.03
2018-06-30T00:39:24.353Z,67.48
2018-06-30T00:41:51.617Z,67.60
2018-06-30T00:44:19.198Z,67.64
2018-06-30T00:46:46.415Z,68.14
2018-06-30T00:49:14.213Z,67.65
2018-06-30T00:51:41.485Z,67.50
2018-06-30T00:54:08.734Z,68.25
2018-06-30T00:56:36.021Z,68.14
2018-06-30T00:59:03.298Z,68.34
2018-06-30T01:01:30.579Z,68.24
2018-06-30T01:03:57.841Z,68.04
2018-06-30T01:06:25.133Z,68.89
2018-06-30T01:08:52.366Z,69.02
2018-06-30T01:11:19.640Z,69.55
2018-06-30T01:13:46.947Z,69.80
2018-06-30T01:16:14.267Z,69.83
2018-06-30T01:18:42.269Z,70.58
2018-06-30T01:21:09.757Z,70.76
2018-06-30T01:23:37.046Z,71.30
2018-06-30T01:26:04.608Z,70.85
2018-06-30T01:28:31.842Z,71.08
2018-06-30T01:30:59.085Z,71.55
2018-06-30T01:33:26.366Z,71.43
2018-06-30T01:35:53.627Z,71.73
2018-06-30T01:38:20.877Z,71.54
2018-06-30T01:40:48.126Z,71.67
2018-06-30T01:43:15.372Z,71.39
2018-06-30T01:45:42.632Z,71.48
2018-06-30T01:48:09.895Z,71.42
2018-06-30T01:50:37.357Z,71.50
2018-06-30T01:53:04.783Z,70.91
2018-06-30T01:55:32.536Z,71.29
2018-06-30T01:57:59.961Z,70.85
2018-06-30T02:00:27.196Z,71.09
2018-06-30T02:02:54.471Z,70.49
2018-06-30T02:05:21.739Z,71.20
2018-06-30T02:07:49.011Z,70.96
2018-06-30T02:10:16.289Z,70.51
2018-06-30T02:12:43.542Z,70.91
2018-06-30T02:15:10.852Z,70.79
2018-06-30T02:17:38.227Z,71.03
2018-06-30T02:20:05.570Z,71.03
2018-06-30T02:22:32.819Z,71.13
2018-06-30T02:25:00.069Z,70.73
2018-06-30T02:27:27.327Z,71.41
2018-06-30T02:29:54.555Z,70.69
2018-06-30T02:32:21.833Z,71.19
2018-06-30T02:34:49.083Z,71.08
2018-06-30T02:37:16.398Z,71.13
2018-06-30T02:39:43.690Z,71.67
2018-06-30T02:42:11.009Z,72.35
2018-06-30T02:44:38.277Z,72.76
2018-06-30T02:47:05.675Z,72.82
2018-06-30T02:49:33.083Z,72.69
2018-06-30T02:52:00.428Z,73.53
2018-06-30T02:54:27.891Z,73.26
2018-06-30T02:56:55.182Z,73.45
2018-06-30T02:59:22.526Z,73.51
2018-06-30T03:01:49.988Z,72.80
2018-06-30T03:04:17.621Z,73.38
2018-06-30T03:06:44.984Z,73.42
2018-06-30T03:09:12.365Z,73.08
2018-06-30T03:11:40.099Z,73.59
2018-06-30T03:14:07.502Z,73.65
2018-06-30T03:16:35.445Z,73.12
2018-06-30T03:19:04.416Z,73.64
2018-06-30T03:21:33.920Z,73.43
2018-06-30T03:24:03.141Z,72.70
2018-06-30T03:26:30.499Z,72.92
2018-06-30T03:28:57.884Z,72.55
2018-06-30T03:31:25.244Z,73.20
2018-06-30T03:33:52.603Z,73.70
2018-06-30T03:36:19.968Z,73.23
2018-06-30T03:38:48.071Z,73.19
2018-06-30T03:41:15.424Z,73.43
2018-06-30T03:43:42.850Z,73.19
2018-06-30T03:46:10.247Z,73.39
2018-06-30T03:48:37.733Z,73.03
2018-06-30T03:51:05.510Z,73.82
2018-06-30T03:53:32.912Z,73.31
2018-06-30T03:56:00.272Z,73.39
2018-06-30T03:58:27.651Z,73.79
2018-06-30T04:00:55.033Z,74.18
2018-06-30T04:03:22.418Z,73.95
2018-06-30T04:05:49.782Z,73.78
2018-06-30T04:08:17.228Z,73.90
2018-06-30T04:10:45.893Z,73.23
2018-06-30T04:13:13.180Z,72.96
2018-06-30T04:15:40.672Z,73.41
2018-06-30T04:18:08.077Z,73.01
2018-06-30T04:20:35.527Z,73.00
2018-06-30T04:23:02.963Z,72.48
2018-06-30T04:25:30.653Z,72.53
2018-06-30T04:27:58.412Z,72.75
2018-06-30T04:30:25.772Z,72.56
2018-06-30T04:32:53.101Z,72.25
2018-06-30T04:35:20.504Z,72.57
2018-06-30T04:37:49.349Z,72.05
2018-06-30T04:40:16.826Z,71.97
2018-06-30T04:42:44.222Z,70.98
2018-06-30T04:45:11.606Z,71.05
2018-06-30T04:47:39.922Z,70.25
2018-06-30T04:50:08.300Z,69.95
2018-06-30T04:52:35.639Z,69.32
2018-06-30T04:55:03.069Z,68.57
2018-06-30T04:57:30.422Z,67.57
2018-06-30T04:59:59.019Z,66.56
2018-06-30T05:02:26.446Z,67.23
2018-06-30T05:04:53.877Z,66.97
2018-06-30T05:07:21.461Z,66.76
2018-06-30T05:09:49.468Z,67.13
2018-06-30T05:12:16.980Z,66.48
2018-06-30T05:14:44.341Z,65.81
2018-06-30T05:17:11.702Z,64.50
2018-06-30T05:19:39.661Z,64.04
2018-06-30T05:22:07.055Z,62.53
2018-06-30T05:24:35.139Z,61.83
2018-06-30T05:27:02.514Z,59.65
2018-06-30T05:29:30.583Z,60.78
2018-06-30T05:31:57.980Z,59.96
2018-06-30T05:34:25.494Z,59.35
2018-06-30T05:36:53.005Z,59.27
2018-06-30T05:39:20.385Z,59.41
2018-06-30T05:41:47.791Z,59.46
2018-06-30T05:44:15.295Z,60.29
2018-06-30T05:46:42.705Z,61.94
2018-06-30T05:49:10.063Z,62.35
2018-06-30T05:51:37.434Z,63.55
2018-06-30T05:54:04.867Z,64.47
2018-06-30T05:56:32.259Z,63.47
2018-06-30T05:58:59.684Z,62.34
2018-06-30T06:01:27.102Z,59.57
2018-06-30T06:03:54.452Z,59.54
2018-06-30T06:06:22.584Z,58.85
2018-06-30T06:08:49.977Z,57.48
2018-06-30T06:11:17.466Z,57.00
2018-06-30T06:13:45.016Z,56.88
2018-06-30T06:16:12.467Z,57.31
2018-06-30T06:18:39.891Z,58.42
2018-06-30T06:21:07.267Z,59.06
2018-06-30T06:23:35.336Z,57.55
2018-06-30T06:26:02.792Z,55.80
2018-06-30T06:28:30.269Z,55.30
2018-06-30T06:30:57.635Z,53.86
2018-06-30T06:33:25.089Z,53.09
2018-06-30T06:35:52.447Z,52.45
2018-06-30T06:38:19.824Z,52.82
2018-06-30T06:40:47.227Z,51.57
2018-06-30T06:43:14.570Z,52.14
2018-06-30T06:45:42.732Z,51.18
2018-06-30T06:48:10.081Z,50.86
2018-06-30T06:50:37.943Z,50.70
2018-06-30T06:53:06.124Z,51.74
2018-06-30T06:55:33.436Z,48.96
2018-06-30T06:58:00.793Z,48.58
2018-06-30T07:00:28.129Z,47.48
2018-06-30T07:02:55.460Z,46.45
2018-06-30T07:05:22.846Z,45.60
2018-06-30T07:07:50.203Z,45.84
2018-06-30T07:10:18.051Z,42.28
2018-06-30T07:12:46.046Z,42.69
2018-06-30T07:15:13.610Z,43.44
2018-06-30T07:17:41.038Z,42.79
2018-06-30T07:20:08.463Z,41.64
2018-06-30T07:22:35.871Z,41.81
2018-06-30T07:25:03.369Z,41.27
2018-06-30T07:27:30.716Z,40.92
2018-06-30T07:29:58.156Z,39.52
2018-06-30T07:32:25.494Z,40.25
2018-06-30T07:34:52.862Z,38.84
2018-06-30T07:37:20.233Z,38.24
2018-06-30T07:39:47.621Z,35.76
2018-06-30T07:42:15.037Z,35.33
2018-06-30T07:44:42.712Z,33.90
2018-06-30T07:47:10.425Z,32.36
2018-06-30T07:49:37.768Z,33.27
2018-06-30T07:52:06.505Z,31.84
2018-06-30T07:54:33.862Z,33.06
2018-06-30T07:57:02.179Z,33.03
2018-06-30T07:59:29.611Z,32.44
2018-06-30T08:01:57.034Z,33.33
2018-06-30T08:04:24.518Z,32.66
2018-06-30T08:06:57.964Z,32.18
2018-06-30T08:09:25.646Z,31.77
2018-06-30T08:11:52.926Z,31.53
2018-06-30T08:14:20.307Z,29.26
2018-06-30T08:16:47.656Z,28.54
2018-06-30T08:19:15.034Z,29.32
2018-06-30T08:21:42.468Z,29.76
2018-06-30T08:24:09.988Z,29.80
2018-06-30T08:26:37.395Z,30.17
2018-06-30T08:29:04.879Z,29.71
2018-06-30T08:31:32.244Z,29.84
2018-06-30T08:34:00.109Z,29.46
2018-06-30T08:36:27.524Z,27.78
2018-06-30T08:38:54.855Z,27.69
2018-06-30T08:41:22.284Z,27.66
2018-06-30T08:43:49.653Z,27.49
2018-06-30T08:46:17.046Z,26.03
2018-06-30T08:48:45.329Z,26.07
2018-06-30T08:51:12.848Z,27.37
2018-06-30T08:53:40.585Z,27.96
2018-06-30T08:56:08.015Z,25.34
2018-06-30T08:58:35.549Z,25.59
2018-06-30T09:01:03.062Z,26.29
2018-06-30T09:03:30.443Z,26.05
2018-06-30T09:05:58.579Z,24.17
2018-06-30T09:08:26.008Z,25.08
2018-06-30T09:16:43.012Z,23.85
2018-06-30T09:19:10.675Z,25.47
2018-06-30T09:21:38.137Z,25.74
2018-06-30T09:24:06.205Z,25.74
2018-06-30T09:26:34.603Z,25.99
2018-06-30T09:29:02.052Z,25.20
2018-06-30T09:31:31.838Z,24.48
2018-06-30T09:33:59.617Z,22.28
2018-06-30T09:36:30.461Z,23.49
2018-06-30T09:38:58.271Z,23.04
2018-06-30T09:41:25.726Z,22.73
2018-06-30T09:43:53.162Z,23.36
2018-06-30T09:46:20.817Z,23.07
2018-06-30T09:48:48.557Z,23.07
2018-06-30T09:51:19.589Z,23.56
2018-06-30T09:53:54.649Z,22.52
2018-06-30T09:56:25.548Z,22.29
2018-06-30T09:59:01.685Z,23.63
2018-06-30T10:01:33.212Z,22.29
2018-06-30T10:04:01.955Z,22.27
2018-06-30T10:06:29.354Z,21.06
2018-06-30T10:08:56.889Z,20.89
2018-06-30T10:11:24.301Z,21.20
2018-06-30T10:13:52.616Z,20.84
2018-06-30T10:16:20.007Z,21.82
2018-06-30T10:18:49.061Z,21.52
2018-06-30T10:21:16.495Z,21.87
2018-06-30T10:23:45.635Z,22.28
2018-06-30T10:26:13.079Z,21.59
2018-06-30T10:28:40.537Z,20.90
2018-06-30T10:31:07.998Z,20.88
2018-06-30T10:33:35.379Z,20.61
2018-06-30T10:36:02.808Z,20.13
2018-06-30T10:38:30.516Z,20.17
2018-06-30T10:40:58.149Z,19.87
2018-06-30T10:43:25.810Z,20.16
2018-06-30T10:45:53.221Z,19.64
2018-06-30T10:48:20.878Z,20.10
2018-06-30T10:50:50.633Z,19.64
2018-06-30T10:53:18.135Z,19.60
2018-06-30T10:55:45.629Z,18.98
2018-06-30T10:58:13.715Z,18.84
2018-06-30T11:00:41.303Z,18.53
2018-06-30T11:03:08.826Z,18.15
2018-06-30T11:05:48.825Z,17.99
2018-06-30T11:08:16.794Z,18.12
2018-06-30T11:10:44.247Z,18.21
2018-06-30T11:13:11.613Z,18.71
2018-06-30T11:15:39.028Z,18.36
2018-06-30T11:18:07.034Z,17.84
2018-06-30T11:20:35.136Z,17.82
2018-06-30T11:23:02.679Z,18.76
2018-06-30T11:25:31.342Z,18.03
2018-06-30T11:27:58.748Z,18.19
2018-06-30T11:30:26.114Z,18.35
2018-06-30T11:32:55.050Z,17.91
2018-06-30T11:35:23.182Z,18.53
2018-06-30T11:37:50.578Z,18.77
2018-06-30T11:40:18.853Z,18.48
2018-06-30T11:42:46.312Z,18.97
2018-06-30T11:45:15.697Z,18.79
2018-06-30T11:47:43.094Z,18.84
2018-06-30T11:50:11.216Z,18.28
2018-06-30T11:52:39.432Z,17.80
2018-06-30T11:55:06.856Z,18.55
2018-06-30T11:57:35.290Z,19.16
2018-06-30T12:00:05.021Z,19.42
2018-06-30T12:02:32.448Z,18.90
2018-06-30T12:04:59.812Z,19.31
2018-06-30T12:07:27.690Z,18.07
2018-06-30T12:09:55.296Z,18.82
2018-06-30T12:12:25.196Z,18.63
2018-06-30T12:14:54.845Z,18.54
2018-06-30T12:17:25.751Z,19.16
2018-06-30T12:19:55.782Z,18.40
2018-06-30T12:22:25.016Z,19.11
2018-06-30T12:24:52.448Z,19.09
2018-06-30T12:27:20.742Z,19.17
2018-06-30T12:29:48.221Z,19.01
2018-06-30T12:32:15.747Z,19.09
2018-06-30T12:34:43.178Z,18.18
2018-06-30T12:37:10.567Z,19.10
2018-06-30T12:39:37.920Z,17.92
2018-06-30T12:42:05.420Z,17.62
2018-06-30T12:44:33.522Z,17.63
2018-06-30T12:47:01.592Z,17.14
2018-06-30T12:49:29.092Z,17.80
2018-06-30T12:51:57.707Z,17.71
2018-06-30T12:54:25.219Z,17.01
2018-06-30T12:56:52.951Z,16.92
2018-06-30T12:59:20.808Z,16.50
2018-06-30T13:01:48.237Z,17.13
2018-06-30T13:04:15.646Z,17.69
2018-06-30T13:06:43.066Z,17.46
2018-06-30T13:09:12.019Z,18.14
2018-06-30T13:11:39.611Z,17.95
2018-06-30T13:14:07.636Z,17.92
2018-06-30T13:16:36.120Z,18.94
2018-06-30T13:19:03.705Z,18.16
2018-06-30T13:21:31.245Z,18.07
2018-06-30T13:23:58.713Z,18.08
2018-06-30T13:26:26.074Z,19.16
2018-06-30T13:28:54.057Z,18.69
2018-06-30T13:31:21.612Z,18.52
2018-06-30T13:33:49.013Z,18.44
2018-06-30T13:36:16.416Z,18.72
2018-06-30T13:38:44.926Z,17.89
2018-06-30T13:41:12.440Z,19.70
2018-06-30T13:43:39.871Z,19.19
2018-06-30T13:46:07.408Z,19.22
2018-06-30T13:48:34.908Z,18.99
2018-06-30T13:51:02.799Z,19.49
2018-06-30T13:53:30.390Z,19.47
2018-06-30T13:55:57.897Z,18.72
2018-06-30T13:58:25.380Z,19.11
2018-06-30T14:00:53.418Z,19.17
2018-06-30T14:03:20.907Z,19.53
2018-06-30T14:05:48.307Z,19.67
2018-06-30T14:08:15.678Z,19.48
2018-06-30T14:10:43.011Z,20.33
2018-06-30T14:13:10.458Z,19.93
2018-06-30T14:15:37.868Z,20.06
2018-06-30T14:18:05.302Z,19.12
2018-06-30T14:20:32.690Z,20.09
2018-06-30T14:23:00.142Z,20.73
2018-06-30T14:25:28.328Z,20.19
2018-06-30T14:27:55.729Z,20.17
2018-06-30T14:30:23.190Z,20.25
2018-06-30T14:32:51.200Z,20.62
2018-06-30T14:35:18.573Z,21.13
2018-06-30T14:37:45.981Z,21.61
2018-06-30T14:40:13.457Z,21.88
2018-06-30T14:42:40.969Z,21.23
2018-06-30T14:45:08.425Z,21.20
2018-06-30T14:47:35.760Z,21.56
2018-06-30T14:50:03.256Z,22.35
2018-06-30T14:52:31.191Z,22.17
2018-06-30T14:54:58.571Z,21.68
2018-06-30T14:57:26.034Z,20.94
2018-06-30T14:59:53.414Z,21.37
2018-06-30T15:02:23.247Z,22.04
2018-06-30T15:04:52.288Z,22.60
2018-06-30T15:07:19.790Z,22.16
2018-06-30T15:09:48.009Z,22.43
2018-06-30T15:12:15.735Z,22.67
2018-06-30T15:14:43.539Z,22.73
2018-06-30T15:17:11.547Z,22.48
2018-06-30T15:19:39.932Z,21.90
2018-06-30T15:22:07.957Z,22.39
2018-06-30T15:24:36.073Z,22.15
2018-06-30T15:27:04.608Z,21.80
2018-06-30T15:29:32.407Z,22.09
2018-06-30T15:32:00.025Z,22.32
2018-06-30T15:34:27.924Z,21.33
2018-06-30T15:36:55.937Z,21.36
2018-06-30T15:39:24.090Z,21.63
2018-06-30T15:41:52.230Z,21.53
2018-06-30T15:44:20.413Z,21.53
2018-06-30T15:46:49.580Z,21.74
2018-06-30T15:49:17.580Z,21.47
2018-06-30T15:51:45.422Z,22.15
2018-06-30T15:54:13.388Z,21.76
2018-06-30T15:56:41.274Z,22.08
2018-06-30T15:59:09.556Z,22.75
2018-06-30T16:01:37.448Z,22.54
2018-06-30T16:04:05.732Z,22.47
2018-06-30T16:06:34.268Z,22.00
2018-06-30T16:09:03.105Z,21.86
2018-06-30T16:11:31.372Z,22.26
2018-06-30T16:14:00.392Z,22.27
2018-06-30T16:16:28.689Z,21.93
2018-06-30T16:18:57.474Z,22.38
2018-06-30T16:21:26.281Z,22.77
2018-06-30T16:23:55.641Z,22.36
2018-06-30T16:26:24.119Z,23.00
2018-06-30T16:28:52.070Z,22.91
2018-06-30T16:31:21.644Z,22.32
2018-06-30T16:33:50.632Z,23.43
2018-06-30T16:36:19.324Z,23.84
2018-06-30T16:38:47.600Z,23.09
2018-06-30T16:41:16.167Z,23.33
2018-06-30T16:43:44.988Z,22.52
2018-06-30T16:46:13.012Z,22.19
2018-06-30T16:48:41.544Z,23.35
2018-06-30T16:51:09.638Z,23.42
2018-06-30T16:53:37.964Z,23.61
2018-06-30T16:56:06.300Z,24.05
2018-06-30T16:58:35.273Z,23.87
2018-06-30T17:01:04.349Z,23.65
2018-06-30T17:03:33.388Z,24.09
2018-06-30T17:06:02.128Z,24.59
2018-06-30T17:08:30.381Z,24.83
2018-06-30T17:10:59.093Z,24.90
2018-06-30T17:13:30.534Z,25.06
2018-06-30T17:15:58.446Z,25.50
2018-06-30T17:18:27.342Z,25.53
2018-06-30T17:20:56.612Z,26.09
2018-06-30T17:23:25.964Z,25.88
2018-06-30T17:25:54.702Z,25.84
2018-06-30T17:28:23.724Z,25.75
2018-06-30T17:30:51.340Z,26.04
2018-06-30T17:33:21.616Z,26.13
2018-06-30T17:35:51.333Z,26.46
2018-06-30T17:38:21.255Z,26.69
2018-06-30T17:40:50.813Z,26.88
2018-06-30T17:43:19.252Z,26.66
2018-06-30T17:45:47.048Z,26.84
2018-06-30T17:48:14.958Z,26.81
2018-06-30T17:50:43.350Z,27.11
2018-06-30T17:53:12.198Z,27.66
2018-06-30T17:55:41.533Z,27.35
2018-06-30T17:58:09.067Z,27.56
2018-06-30T18:00:38.200Z,27.57
2018-06-30T18:03:09.914Z,27.49
2018-06-30T18:05:37.442Z,27.86
2018-06-30T18:08:05.776Z,27.85
2018-06-30T18:10:35.468Z,27.64
2018-06-30T18:13:04.105Z,27.85
2018-06-30T18:15:33.234Z,28.36
2018-06-30T18:18:09.027Z,28.25
2018-06-30T18:20:36.551Z,28.06
2018-06-30T18:23:05.240Z,28.38
2018-06-30T18:25:34.102Z,28.79
2018-06-30T18:28:08.094Z,29.08
2018-06-30T18:30:36.143Z,29.42
2018-06-30T18:33:04.750Z,29.53
2018-06-30T18:35:32.452Z,29.27
2018-06-30T18:38:00.006Z,29.29
2018-06-30T18:40:28.294Z,29.47
2018-06-30T18:42:55.904Z,29.70
2018-06-30T18:45:23.718Z,29.95
2018-06-30T18:47:54.262Z,30.11
2018-06-30T18:50:21.682Z,30.51
2018-06-30T18:52:49.178Z,30.90
2018-06-30T18:55:18.235Z,30.96
2018-06-30T18:57:46.679Z,31.27
2018-06-30T19:00:15.848Z,31.79
2018-06-30T19:02:45.450Z,31.72
2018-06-30T19:05:14.451Z,32.22
2018-06-30T19:07:44.632Z,32.62
2018-06-30T19:10:14.691Z,32.52
2018-06-30T19:12:42.506Z,33.19
2018-06-30T19:15:11.434Z,33.57
2018-06-30T19:17:39.505Z,33.89
2018-06-30T19:20:11.316Z,34.12
2018-06-30T19:22:40.189Z,33.74
2018-06-30T19:25:11.276Z,34.20
2018-06-30T19:27:41.251Z,34.34
2018-06-30T19:30:10.547Z,34.57
2018-06-30T19:32:41.192Z,34.78
2018-06-30T19:35:09.183Z,34.56
2018-06-30T19:37:37.832Z,34.63
2018-06-30T19:40:06.314Z,34.55
2018-06-30T19:42:36.138Z,35.23
2018-06-30T19:45:04.370Z,35.20
2018-06-30T19:47:37.067Z,35.02
2018-06-30T19:50:09.265Z,35.00
2018-06-30T19:52:37.489Z,35.02
2018-06-30T19:55:08.012Z,35.62
2018-06-30T19:57:36.825Z,35.74
2018-06-30T20:02:32.931Z,36.33
2018-06-30T20:05:01.506Z,36.48
2018-06-30T20:07:34.339Z,36.64
2018-06-30T20:10:04.545Z,36.94
2018-06-30T20:12:33.284Z,37.00
2018-06-30T20:15:02.524Z,36.56
2018-06-30T20:17:32.645Z,37.08
2018-06-30T20:20:07.584Z,37.44
2018-06-30T20:22:37.014Z,38.06
2018-06-30T20:25:10.921Z,38.77
2018-06-30T20:27:40.729Z,38.84
2018-06-30T20:30:14.826Z,38.95
2018-06-30T20:32:43.123Z,39.40
2018-06-30T20:35:10.764Z,39.51
2018-06-30T20:37:38.379Z,39.52
2018-06-30T20:40:06.309Z,39.59
2018-06-30T20:42:39.662Z,40.34
2018-06-30T20:45:09.532Z,40.74
2018-06-30T20:47:40.108Z,41.08
2018-06-30T20:50:09.881Z,40.93
2018-06-30T20:52:42.104Z,40.44
2018-06-30T20:55:09.693Z,40.34
2018-06-30T20:57:37.854Z,40.66
2018-06-30T21:00:06.779Z,41.73
2018-06-30T21:02:36.112Z,42.06
2018-06-30T21:05:04.259Z,42.01
2018-06-30T21:07:32.009Z,42.26
2018-06-30T21:09:59.573Z,42.34
2018-06-30T21:12:27.103Z,42.51
2018-06-30T21:14:54.930Z,42.55
2018-06-30T21:17:24.110Z,42.21
2018-06-30T21:19:52.346Z,42.82
2018-06-30T21:22:19.782Z,43.06
2018-06-30T21:24:48.116Z,42.53
2018-06-30T21:27:15.615Z,42.66
2018-06-30T21:29:43.010Z,42.72
2018-06-30T21:32:10.351Z,42.53
2018-06-30T21:34:37.687Z,42.58
2018-06-30T21:37:05.153Z,42.55
2018-06-30T21:39:32.540Z,42.59
2018-06-30T21:41:59.824Z,42.57
2018-06-30T21:44:27.053Z,43.34
2018-06-30T21:46:54.321Z,43.33
2018-06-30T21:49:21.610Z,43.18
2018-06-30T21:51:48.895Z,42.88
2018-06-30T21:54:16.221Z,42.79
2018-06-30T21:56:43.709Z,43.16
2018-06-30T21:59:11.136Z,42.95
2018-06-30T22:01:38.595Z,42.94
2018-06-30T22:04:05.879Z,42.87
2018-06-30T22:06:33.119Z,43.31
2018-06-30T22:09:00.410Z,42.78
2018-06-30T22:11:27.848Z,43.11
2018-06-30T22:13:55.112Z,43.01
2018-06-30T22:16:22.412Z,43.28
2018-06-30T22:18:49.696Z,43.44
2018-06-30T22:21:16.983Z,42.93
2018-06-30T22:23:44.248Z,43.13
2018-06-30T22:26:11.590Z,43.51
2018-06-30T22:28:38.864Z,43.67
2018-06-30T22:31:06.164Z,43.66
2018-06-30T22:33:33.453Z,44.01
2018-06-30T22:36:00.694Z,43.68
2018-06-30T22:38:27.962Z,44.37
2018-06-30T22:40:55.183Z,44.28
2018-06-30T22:43:22.482Z,43.95
2018-06-30T22:45:49.739Z,44.04
2018-06-30T22:48:17.030Z,44.35
2018-06-30T22:50:44.263Z,44.19
2018-06-30T22:53:11.539Z,44.92
2018-06-30T22:55:38.758Z,45.16
2018-06-30T22:58:06.221Z,46.02
2018-06-30T23:00:33.584Z,46.17
2018-06-30T23:03:02.103Z,46.95
2018-06-30T23:05:29.424Z,46.40
2018-06-30T23:07:56.721Z,46.65
2018-06-30T23:10:24.010Z,46.78
2018-06-30T23:12:51.300Z,47.69
2018-06-30T23:15:18.597Z,48.43
2018-06-30T23:17:45.874Z,48.70
2018-06-30T23:20:13.125Z,48.67
2018-06-30T23:23:01.784Z,48.58
2018-06-30T23:25:30.239Z,48.78
2018-06-30T23:27:58.023Z,49.30
2018-06-30T23:30:25.697Z,48.84
2018-06-30T23:32:52.975Z,48.88
2018-06-30T23:35:21.075Z,48.55
2018-06-30T23:37:48.319Z,48.33
2018-06-30T23:40:16.205Z,48.44
2018-06-30T23:42:43.492Z,48.10
2018-06-30T23:45:10.945Z,48.23
2018-06-30T23:47:38.249Z,47.77
2018-06-30T23:50:05.783Z,48.28
2018-06-30T23:52:33.282Z,47.72
2018-06-30T23:55:00.551Z,47.55
2018-06-30T23:57:27.817Z,48.06
2018-06-30T23:59:55.104Z,47.31
